sensor_id;sensor_type;location;lat;lon;timestamp;temperature;humidity
23087;DHT22;11712;51.134;4.156;2022-11-28T00:01:45;9.20;99.90
23087;DHT22;11712;51.134;4.156;2022-11-28T00:04:12;9.20;99.90
23087;DHT22;11712;51.134;4.156;2022-11-28T00:06:40;8.80;99.90
23087;DHT22;11712;51.134;4.156;2022-11-28T00:09:07;9.10;99.90
23087;DHT22;11712;51.134;4.156;2022-11-28T00:11:33;9.20;99.90
23087;DHT22;11712;51.134;4.156;2022-11-28T00:13:59;9.20;99.90
23087;DHT22;11712;51.134;4.156;2022-11-28T00:16:25;9.10;99.90
23087;DHT22;11712;51.134;4.156;2022-11-28T00:18:52;9.10;99.90
23087;DHT22;11712;51.134;4.156;2022-11-28T00:21:18;9.00;99.90
23087;DHT22;11712;51.134;4.156;2022-11-28T00:23:46;9.00;99.90
23087;DHT22;11712;51.134;4.156;2022-11-28T00:26:17;9.00;99.90
23087;DHT22;11712;51.134;4.156;2022-11-28T00:28:43;9.00;99.90
23087;DHT22;11712;51.134;4.156;2022-11-28T00:31:23;8.90;99.90
23087;DHT22;11712;51.134;4.156;2022-11-28T00:36:33;8.90;99.90
23087;DHT22;11712;51.134;4.156;2022-11-28T00:38:59;8.90;99.90
23087;DHT22;11712;51.134;4.156;2022-11-28T00:41:27;8.80;99.90
23087;DHT22;11712;51.134;4.156;2022-11-28T00:43:54;8.80;99.90
23087;DHT22;11712;51.134;4.156;2022-11-28T00:46:20;9.00;99.90
23087;DHT22;11712;51.134;4.156;2022-11-28T00:48:47;8.70;99.90
23087;DHT22;11712;51.134;4.156;2022-11-28T00:51:16;8.70;99.90
23087;DHT22;11712;51.134;4.156;2022-11-28T00:53:44;8.70;99.90
23087;DHT22;11712;51.134;4.156;2022-11-28T00:56:12;8.70;99.90
23087;DHT22;11712;51.134;4.156;2022-11-28T00:58:39;8.70;99.90
23087;DHT22;11712;51.134;4.156;2022-11-28T01:01:32;8.60;99.90
23087;DHT22;11712;51.134;4.156;2022-11-28T01:04:00;8.60;99.90
23087;DHT22;11712;51.134;4.156;2022-11-28T01:06:37;8.90;99.90
23087;DHT22;11712;51.134;4.156;2022-11-28T01:09:07;8.60;99.90
23087;DHT22;11712;51.134;4.156;2022-11-28T01:11:33;8.60;99.90
23087;DHT22;11712;51.134;4.156;2022-11-28T01:14:00;8.70;99.90
23087;DHT22;11712;51.134;4.156;2022-11-28T01:16:27;8.70;99.90
23087;DHT22;11712;51.134;4.156;2022-11-28T01:18:53;8.80;99.90
23087;DHT22;11712;51.134;4.156;2022-11-28T01:23:01;8.70;99.90
23087;DHT22;11712;51.134;4.156;2022-11-28T01:25:26;8.70;99.90
23087;DHT22;11712;51.134;4.156;2022-11-28T01:27:52;8.70;99.90
23087;DHT22;11712;51.134;4.156;2022-11-28T01:32:04;8.70;99.90
23087;DHT22;11712;51.134;4.156;2022-11-28T01:34:30;8.70;99.90
23087;DHT22;11712;51.134;4.156;2022-11-28T01:36:56;8.70;99.90
23087;DHT22;11712;51.134;4.156;2022-11-28T01:39:22;8.70;99.90
23087;DHT22;11712;51.134;4.156;2022-11-28T01:41:47;8.80;99.90
23087;DHT22;11712;51.134;4.156;2022-11-28T01:46:39;8.70;99.90
23087;DHT22;11712;51.134;4.156;2022-11-28T01:49:14;8.60;99.90
23087;DHT22;11712;51.134;4.156;2022-11-28T01:51:45;8.70;99.90
23087;DHT22;11712;51.134;4.156;2022-11-28T01:54:14;8.80;99.90
23087;DHT22;11712;51.134;4.156;2022-11-28T01:56:57;8.90;99.90
23087;DHT22;11712;51.134;4.156;2022-11-28T01:59:26;8.80;99.90
23087;DHT22;11712;51.134;4.156;2022-11-28T02:01:53;8.80;99.90
23087;DHT22;11712;51.134;4.156;2022-11-28T02:04:18;8.80;99.90
23087;DHT22;11712;51.134;4.156;2022-11-28T02:06:45;8.80;99.90
23087;DHT22;11712;51.134;4.156;2022-11-28T02:09:12;8.80;99.90
23087;DHT22;11712;51.134;4.156;2022-11-28T02:22:50;8.80;99.90
23087;DHT22;11712;51.134;4.156;2022-11-28T02:34:12;8.80;99.90
23087;DHT22;11712;51.134;4.156;2022-11-28T02:36:44;8.80;99.90
23087;DHT22;11712;51.134;4.156;2022-11-28T02:39:34;8.80;99.90
23087;DHT22;11712;51.134;4.156;2022-11-28T02:42:22;8.80;99.90
23087;DHT22;11712;51.134;4.156;2022-11-28T02:44:58;8.70;99.90
23087;DHT22;11712;51.134;4.156;2022-11-28T02:47:31;9.00;99.90
23087;DHT22;11712;51.134;4.156;2022-11-28T02:50:15;8.80;99.90
23087;DHT22;11712;51.134;4.156;2022-11-28T02:52:49;8.80;99.90
23087;DHT22;11712;51.134;4.156;2022-11-28T02:55:16;8.90;99.90
23087;DHT22;11712;51.134;4.156;2022-11-28T02:57:49;8.90;99.90
23087;DHT22;11712;51.134;4.156;2022-11-28T03:00:30;9.00;99.90
23087;DHT22;11712;51.134;4.156;2022-11-28T03:07:28;8.80;99.90
23087;DHT22;11712;51.134;4.156;2022-11-28T03:18:23;8.80;99.90
23087;DHT22;11712;51.134;4.156;2022-11-28T03:20:55;8.80;99.90
23087;DHT22;11712;51.134;4.156;2022-11-28T03:23:37;8.90;99.90
23087;DHT22;11712;51.134;4.156;2022-11-28T03:26:17;9.00;99.90
23087;DHT22;11712;51.134;4.156;2022-11-28T03:28:54;9.00;99.90
23087;DHT22;11712;51.134;4.156;2022-11-28T03:31:29;9.00;99.90
23087;DHT22;11712;51.134;4.156;2022-11-28T03:33:58;9.30;99.90
23087;DHT22;11712;51.134;4.156;2022-11-28T03:39:27;9.00;99.90
23087;DHT22;11712;51.134;4.156;2022-11-28T03:41:58;9.00;99.90
23087;DHT22;11712;51.134;4.156;2022-11-28T03:44:29;9.00;99.90
23087;DHT22;11712;51.134;4.156;2022-11-28T03:49:39;9.10;99.90
23087;DHT22;11712;51.134;4.156;2022-11-28T03:52:09;9.10;99.90
23087;DHT22;11712;51.134;4.156;2022-11-28T03:54:57;9.10;99.90
23087;DHT22;11712;51.134;4.156;2022-11-28T03:57:44;9.10;99.90
23087;DHT22;11712;51.134;4.156;2022-11-28T04:00:13;9.10;99.90
23087;DHT22;11712;51.134;4.156;2022-11-28T04:05:34;9.00;99.90
23087;DHT22;11712;51.134;4.156;2022-11-28T04:08:38;9.10;99.90
23087;DHT22;11712;51.134;4.156;2022-11-28T04:11:53;9.10;99.90
23087;DHT22;11712;51.134;4.156;2022-11-28T04:13:57;9.00;99.90
23087;DHT22;11712;51.134;4.156;2022-11-28T04:16:35;9.10;99.90
23087;DHT22;11712;51.134;4.156;2022-11-28T04:19:09;9.40;99.90
23087;DHT22;11712;51.134;4.156;2022-11-28T04:24:40;9.20;99.90
23087;DHT22;11712;51.134;4.156;2022-11-28T04:27:14;9.10;99.90
23087;DHT22;11712;51.134;4.156;2022-11-28T04:29:50;9.10;99.90
23087;DHT22;11712;51.134;4.156;2022-11-28T04:33:46;9.20;99.90
23087;DHT22;11712;51.134;4.156;2022-11-28T04:36:13;9.50;99.90
23087;DHT22;11712;51.134;4.156;2022-11-28T04:38:41;9.40;99.90
23087;DHT22;11712;51.134;4.156;2022-11-28T04:41:14;9.10;99.90
23087;DHT22;11712;51.134;4.156;2022-11-28T04:43:51;9.40;99.90
23087;DHT22;11712;51.134;4.156;2022-11-28T04:46:35;9.00;99.90
23087;DHT22;11712;51.134;4.156;2022-11-28T04:49:03;9.10;99.90
23087;DHT22;11712;51.134;4.156;2022-11-28T04:51:43;9.30;99.90
23087;DHT22;11712;51.134;4.156;2022-11-28T04:54:27;9.20;99.90
23087;DHT22;11712;51.134;4.156;2022-11-28T04:57:06;9.20;99.90
23087;DHT22;11712;51.134;4.156;2022-11-28T04:59:34;9.20;99.90
23087;DHT22;11712;51.134;4.156;2022-11-28T05:02:04;9.50;99.90
23087;DHT22;11712;51.134;4.156;2022-11-28T05:04:30;9.20;99.90
23087;DHT22;11712;51.134;4.156;2022-11-28T05:09:05;9.40;99.90
23087;DHT22;11712;51.134;4.156;2022-11-28T05:11:31;9.30;99.90
23087;DHT22;11712;51.134;4.156;2022-11-28T05:13:56;9.30;99.90
23087;DHT22;11712;51.134;4.156;2022-11-28T05:16:22;9.20;99.90
23087;DHT22;11712;51.134;4.156;2022-11-28T05:18:48;9.30;99.90
23087;DHT22;11712;51.134;4.156;2022-11-28T05:21:14;9.40;99.90
23087;DHT22;11712;51.134;4.156;2022-11-28T05:23:42;9.30;99.90
23087;DHT22;11712;51.134;4.156;2022-11-28T05:26:10;9.50;99.90
23087;DHT22;11712;51.134;4.156;2022-11-28T05:28:36;9.60;99.90
23087;DHT22;11712;51.134;4.156;2022-11-28T05:31:03;9.30;99.90
23087;DHT22;11712;51.134;4.156;2022-11-28T05:33:29;9.40;99.90
23087;DHT22;11712;51.134;4.156;2022-11-28T05:35:56;9.40;99.90
23087;DHT22;11712;51.134;4.156;2022-11-28T05:38:22;9.40;99.90
23087;DHT22;11712;51.134;4.156;2022-11-28T05:40:48;9.40;99.90
23087;DHT22;11712;51.134;4.156;2022-11-28T05:43:13;9.40;99.90
23087;DHT22;11712;51.134;4.156;2022-11-28T05:45:43;9.50;99.90
23087;DHT22;11712;51.134;4.156;2022-11-28T05:48:09;9.50;99.90
23087;DHT22;11712;51.134;4.156;2022-11-28T05:50:38;9.50;99.90
23087;DHT22;11712;51.134;4.156;2022-11-28T05:53:03;9.50;99.90
23087;DHT22;11712;51.134;4.156;2022-11-28T05:55:29;9.50;99.90
23087;DHT22;11712;51.134;4.156;2022-11-28T05:57:55;9.50;99.90
23087;DHT22;11712;51.134;4.156;2022-11-28T06:00:21;9.60;99.90
23087;DHT22;11712;51.134;4.156;2022-11-28T06:02:47;9.50;99.90
23087;DHT22;11712;51.134;4.156;2022-11-28T06:05:12;9.60;99.90
23087;DHT22;11712;51.134;4.156;2022-11-28T06:07:38;9.50;99.90
23087;DHT22;11712;51.134;4.156;2022-11-28T06:10:04;9.50;99.90
23087;DHT22;11712;51.134;4.156;2022-11-28T06:12:31;9.50;99.90
23087;DHT22;11712;51.134;4.156;2022-11-28T06:14:57;9.60;99.90
23087;DHT22;11712;51.134;4.156;2022-11-28T06:17:23;9.60;99.90
23087;DHT22;11712;51.134;4.156;2022-11-28T06:19:48;9.60;99.90
23087;DHT22;11712;51.134;4.156;2022-11-28T06:22:14;9.60;99.90
23087;DHT22;11712;51.134;4.156;2022-11-28T06:24:40;9.60;99.90
23087;DHT22;11712;51.134;4.156;2022-11-28T06:27:05;9.60;99.90
23087;DHT22;11712;51.134;4.156;2022-11-28T06:29:31;9.60;99.90
23087;DHT22;11712;51.134;4.156;2022-11-28T06:31:57;9.60;99.90
23087;DHT22;11712;51.134;4.156;2022-11-28T06:34:23;9.70;99.90
23087;DHT22;11712;51.134;4.156;2022-11-28T06:36:48;9.60;99.90
23087;DHT22;11712;51.134;4.156;2022-11-28T06:39:15;9.60;99.90
23087;DHT22;11712;51.134;4.156;2022-11-28T06:41:41;9.60;99.90
23087;DHT22;11712;51.134;4.156;2022-11-28T06:44:11;9.70;99.90
23087;DHT22;11712;51.134;4.156;2022-11-28T06:46:37;9.80;99.90
23087;DHT22;11712;51.134;4.156;2022-11-28T06:49:02;9.70;99.90
23087;DHT22;11712;51.134;4.156;2022-11-28T06:51:28;9.70;99.90
23087;DHT22;11712;51.134;4.156;2022-11-28T06:53:54;9.70;99.90
23087;DHT22;11712;51.134;4.156;2022-11-28T06:56:20;9.60;99.90
23087;DHT22;11712;51.134;4.156;2022-11-28T06:58:46;9.60;99.90
23087;DHT22;11712;51.134;4.156;2022-11-28T07:01:17;9.60;99.90
23087;DHT22;11712;51.134;4.156;2022-11-28T07:03:43;9.60;99.90
23087;DHT22;11712;51.134;4.156;2022-11-28T07:06:10;9.60;99.90
23087;DHT22;11712;51.134;4.156;2022-11-28T07:08:36;9.70;99.90
23087;DHT22;11712;51.134;4.156;2022-11-28T07:11:11;9.70;99.90
23087;DHT22;11712;51.134;4.156;2022-11-28T07:13:37;9.70;99.90
23087;DHT22;11712;51.134;4.156;2022-11-28T07:16:03;9.70;99.90
23087;DHT22;11712;51.134;4.156;2022-11-28T07:18:29;9.70;99.90
23087;DHT22;11712;51.134;4.156;2022-11-28T07:20:55;9.70;99.90
23087;DHT22;11712;51.134;4.156;2022-11-28T07:23:21;9.80;99.90
23087;DHT22;11712;51.134;4.156;2022-11-28T07:25:46;9.70;99.90
23087;DHT22;11712;51.134;4.156;2022-11-28T07:28:12;9.70;99.90
23087;DHT22;11712;51.134;4.156;2022-11-28T07:30:37;9.70;99.90
23087;DHT22;11712;51.134;4.156;2022-11-28T07:33:03;9.70;99.90
23087;DHT22;11712;51.134;4.156;2022-11-28T07:35:28;9.90;99.90
23087;DHT22;11712;51.134;4.156;2022-11-28T07:37:54;9.80;99.90
23087;DHT22;11712;51.134;4.156;2022-11-28T07:40:20;9.70;99.90
23087;DHT22;11712;51.134;4.156;2022-11-28T07:42:47;9.80;99.90
23087;DHT22;11712;51.134;4.156;2022-11-28T07:45:13;9.80;99.90
23087;DHT22;11712;51.134;4.156;2022-11-28T07:47:39;9.80;99.90
23087;DHT22;11712;51.134;4.156;2022-11-28T07:50:05;9.90;99.90
23087;DHT22;11712;51.134;4.156;2022-11-28T07:52:31;9.90;99.90
23087;DHT22;11712;51.134;4.156;2022-11-28T07:54:56;9.90;99.90
23087;DHT22;11712;51.134;4.156;2022-11-28T07:57:22;9.90;99.90
23087;DHT22;11712;51.134;4.156;2022-11-28T07:59:48;9.90;99.90
23087;DHT22;11712;51.134;4.156;2022-11-28T08:02:14;9.90;99.90
23087;DHT22;11712;51.134;4.156;2022-11-28T08:04:40;9.90;99.90
23087;DHT22;11712;51.134;4.156;2022-11-28T08:07:05;9.90;99.90
23087;DHT22;11712;51.134;4.156;2022-11-28T08:09:31;9.90;99.90
23087;DHT22;11712;51.134;4.156;2022-11-28T08:11:57;9.80;99.90
23087;DHT22;11712;51.134;4.156;2022-11-28T08:14:23;9.80;99.90
23087;DHT22;11712;51.134;4.156;2022-11-28T08:16:49;9.70;99.90
23087;DHT22;11712;51.134;4.156;2022-11-28T08:19:15;9.70;99.90
23087;DHT22;11712;51.134;4.156;2022-11-28T08:21:41;9.70;99.90
23087;DHT22;11712;51.134;4.156;2022-11-28T08:24:07;9.90;99.90
23087;DHT22;11712;51.134;4.156;2022-11-28T08:26:34;9.90;99.90
23087;DHT22;11712;51.134;4.156;2022-11-28T08:29:01;9.90;99.90
23087;DHT22;11712;51.134;4.156;2022-11-28T08:31:34;9.90;99.90
23087;DHT22;11712;51.134;4.156;2022-11-28T08:34:02;9.80;99.90
23087;DHT22;11712;51.134;4.156;2022-11-28T08:36:28;9.90;99.90
23087;DHT22;11712;51.134;4.156;2022-11-28T08:38:53;9.90;99.90
23087;DHT22;11712;51.134;4.156;2022-11-28T08:41:21;9.90;99.90
23087;DHT22;11712;51.134;4.156;2022-11-28T08:43:48;9.90;99.90
23087;DHT22;11712;51.134;4.156;2022-11-28T08:46:16;10.10;99.90
23087;DHT22;11712;51.134;4.156;2022-11-28T08:48:43;10.00;99.90
23087;DHT22;11712;51.134;4.156;2022-11-28T08:51:11;10.10;99.90
23087;DHT22;11712;51.134;4.156;2022-11-28T08:53:39;10.10;99.90
23087;DHT22;11712;51.134;4.156;2022-11-28T08:56:05;10.30;99.90
23087;DHT22;11712;51.134;4.156;2022-11-28T08:58:31;10.20;99.90
23087;DHT22;11712;51.134;4.156;2022-11-28T09:00:56;10.30;99.90
23087;DHT22;11712;51.134;4.156;2022-11-28T09:03:22;10.20;99.90
23087;DHT22;11712;51.134;4.156;2022-11-28T09:05:48;10.30;99.90
23087;DHT22;11712;51.134;4.156;2022-11-28T09:08:16;10.10;99.90
23087;DHT22;11712;51.134;4.156;2022-11-28T09:10:42;10.10;99.90
23087;DHT22;11712;51.134;4.156;2022-11-28T09:13:09;10.10;99.90
23087;DHT22;11712;51.134;4.156;2022-11-28T09:15:38;10.00;99.90
23087;DHT22;11712;51.134;4.156;2022-11-28T09:18:04;10.10;99.90
23087;DHT22;11712;51.134;4.156;2022-11-28T09:20:30;10.10;99.90
23087;DHT22;11712;51.134;4.156;2022-11-28T09:22:55;10.10;99.90
23087;DHT22;11712;51.134;4.156;2022-11-28T09:25:21;10.00;99.90
23087;DHT22;11712;51.134;4.156;2022-11-28T09:27:46;10.00;99.90
23087;DHT22;11712;51.134;4.156;2022-11-28T09:30:12;9.90;99.90
23087;DHT22;11712;51.134;4.156;2022-11-28T09:33:53;9.90;99.90
23087;DHT22;11712;51.134;4.156;2022-11-28T09:36:23;9.90;99.90
23087;DHT22;11712;51.134;4.156;2022-11-28T09:38:49;9.90;99.90
23087;DHT22;11712;51.134;4.156;2022-11-28T09:41:48;10.10;99.90
23087;DHT22;11712;51.134;4.156;2022-11-28T09:44:25;10.10;99.90
23087;DHT22;11712;51.134;4.156;2022-11-28T09:46:58;10.20;99.90
23087;DHT22;11712;51.134;4.156;2022-11-28T09:49:31;10.20;99.90
23087;DHT22;11712;51.134;4.156;2022-11-28T09:55:04;10.40;99.90
23087;DHT22;11712;51.134;4.156;2022-11-28T09:57:46;10.40;99.90
23087;DHT22;11712;51.134;4.156;2022-11-28T10:00:15;10.50;99.90
23087;DHT22;11712;51.134;4.156;2022-11-28T10:05:48;10.60;99.90
23087;DHT22;11712;51.134;4.156;2022-11-28T10:13:56;10.80;99.90
23087;DHT22;11712;51.134;4.156;2022-11-28T10:16:32;10.80;99.90
23087;DHT22;11712;51.134;4.156;2022-11-28T10:19:03;10.90;99.90
23087;DHT22;11712;51.134;4.156;2022-11-28T10:24:07;11.00;99.90
23087;DHT22;11712;51.134;4.156;2022-11-28T10:26:37;11.10;99.90
23087;DHT22;11712;51.134;4.156;2022-11-28T10:33:58;11.00;99.90
23087;DHT22;11712;51.134;4.156;2022-11-28T10:39:11;11.10;99.90
23087;DHT22;11712;51.134;4.156;2022-11-28T10:41:43;11.20;99.90
23087;DHT22;11712;51.134;4.156;2022-11-28T10:44:25;11.20;99.90
23087;DHT22;11712;51.134;4.156;2022-11-28T10:47:07;11.30;99.90
23087;DHT22;11712;51.134;4.156;2022-11-28T10:50:02;11.30;99.90
23087;DHT22;11712;51.134;4.156;2022-11-28T10:52:34;11.20;99.90
23087;DHT22;11712;51.134;4.156;2022-11-28T11:00:34;11.30;99.90
23087;DHT22;11712;51.134;4.156;2022-11-28T11:03:02;11.50;99.90
23087;DHT22;11712;51.134;4.156;2022-11-28T11:05:30;11.60;99.90
23087;DHT22;11712;51.134;4.156;2022-11-28T11:08:02;11.50;99.90
23087;DHT22;11712;51.134;4.156;2022-11-28T11:10:51;11.50;99.90
23087;DHT22;11712;51.134;4.156;2022-11-28T11:13:22;11.50;99.90
23087;DHT22;11712;51.134;4.156;2022-11-28T11:16:03;11.50;99.90
23087;DHT22;11712;51.134;4.156;2022-11-28T11:18:49;11.40;99.90
23087;DHT22;11712;51.134;4.156;2022-11-28T11:21:26;11.50;99.90
23087;DHT22;11712;51.134;4.156;2022-11-28T11:24:13;11.50;99.90
23087;DHT22;11712;51.134;4.156;2022-11-28T11:26:42;11.50;99.90
23087;DHT22;11712;51.134;4.156;2022-11-28T11:31:52;11.50;99.90
23087;DHT22;11712;51.134;4.156;2022-11-28T11:34:20;11.50;99.90
23087;DHT22;11712;51.134;4.156;2022-11-28T11:36:47;11.50;99.90
23087;DHT22;11712;51.134;4.156;2022-11-28T11:41:41;11.50;99.90
23087;DHT22;11712;51.134;4.156;2022-11-28T11:46:58;11.40;99.90
23087;DHT22;11712;51.134;4.156;2022-11-28T11:54:57;11.60;99.90
23087;DHT22;11712;51.134;4.156;2022-11-28T11:57:48;11.70;99.90
23087;DHT22;11712;51.134;4.156;2022-11-28T12:00:19;11.70;99.90
23087;DHT22;11712;51.134;4.156;2022-11-28T12:02:58;11.80;99.90
23087;DHT22;11712;51.134;4.156;2022-11-28T12:05:29;11.80;99.90
23087;DHT22;11712;51.134;4.156;2022-11-28T12:11:17;11.70;99.90
23087;DHT22;11712;51.134;4.156;2022-11-28T12:13:45;11.80;99.90
23087;DHT22;11712;51.134;4.156;2022-11-28T12:24:36;11.70;99.90
23087;DHT22;11712;51.134;4.156;2022-11-28T12:33:22;12.00;99.90
23087;DHT22;11712;51.134;4.156;2022-11-28T12:41:34;12.20;99.90
23087;DHT22;11712;51.134;4.156;2022-11-28T12:44:17;12.10;99.90
23087;DHT22;11712;51.134;4.156;2022-11-28T13:00:23;13.50;99.90
23087;DHT22;11712;51.134;4.156;2022-11-28T13:05:59;13.00;99.90
23087;DHT22;11712;51.134;4.156;2022-11-28T13:19:54;12.60;99.90
23087;DHT22;11712;51.134;4.156;2022-11-28T13:22:35;12.50;99.90
23087;DHT22;11712;51.134;4.156;2022-11-28T13:25:23;12.50;99.90
23087;DHT22;11712;51.134;4.156;2022-11-28T13:30:47;12.30;99.90
23087;DHT22;11712;51.134;4.156;2022-11-28T13:33:55;12.30;99.90
23087;DHT22;11712;51.134;4.156;2022-11-28T13:36:33;12.40;99.90
23087;DHT22;11712;51.134;4.156;2022-11-28T13:39:02;12.30;99.90
23087;DHT22;11712;51.134;4.156;2022-11-28T13:41:47;12.30;99.90
23087;DHT22;11712;51.134;4.156;2022-11-28T13:46:42;12.70;99.90
23087;DHT22;11712;51.134;4.156;2022-11-28T13:49:19;12.60;99.90
23087;DHT22;11712;51.134;4.156;2022-11-28T13:51:44;12.60;99.90
23087;DHT22;11712;51.134;4.156;2022-11-28T13:59:31;12.30;99.90
23087;DHT22;11712;51.134;4.156;2022-11-28T14:02:03;12.10;99.90
23087;DHT22;11712;51.134;4.156;2022-11-28T14:04:30;12.00;99.90
23087;DHT22;11712;51.134;4.156;2022-11-28T14:07:04;12.00;99.90
23087;DHT22;11712;51.134;4.156;2022-11-28T14:10:15;11.90;99.90
23087;DHT22;11712;51.134;4.156;2022-11-28T14:16:00;11.80;99.90
23087;DHT22;11712;51.134;4.156;2022-11-28T14:26:59;11.70;99.90
23087;DHT22;11712;51.134;4.156;2022-11-28T14:29:47;11.80;99.90
23087;DHT22;11712;51.134;4.156;2022-11-28T14:32:35;11.90;99.90
23087;DHT22;11712;51.134;4.156;2022-11-28T14:35:04;11.90;99.90
23087;DHT22;11712;51.134;4.156;2022-11-28T14:39:58;11.90;99.90
23087;DHT22;11712;51.134;4.156;2022-11-28T14:44:52;12.00;99.90
23087;DHT22;11712;51.134;4.156;2022-11-28T14:47:34;12.10;99.90
23087;DHT22;11712;51.134;4.156;2022-11-28T14:52:36;11.90;99.90
23087;DHT22;11712;51.134;4.156;2022-11-28T14:57:59;11.80;99.90
23087;DHT22;11712;51.134;4.156;2022-11-28T15:00:46;11.70;99.90
23087;DHT22;11712;51.134;4.156;2022-11-28T15:03:38;11.60;99.90
23087;DHT22;11712;51.134;4.156;2022-11-28T15:11:50;11.60;99.90
23087;DHT22;11712;51.134;4.156;2022-11-28T15:14:24;11.50;99.90
23087;DHT22;11712;51.134;4.156;2022-11-28T15:16:54;11.40;99.90
23087;DHT22;11712;51.134;4.156;2022-11-28T15:19:47;11.40;99.90
23087;DHT22;11712;51.134;4.156;2022-11-28T15:25:03;11.40;99.90
23087;DHT22;11712;51.134;4.156;2022-11-28T15:27:30;11.30;99.90
23087;DHT22;11712;51.134;4.156;2022-11-28T15:29:58;11.30;99.90
23087;DHT22;11712;51.134;4.156;2022-11-28T15:32:26;11.30;99.90
23087;DHT22;11712;51.134;4.156;2022-11-28T15:35:03;11.30;99.90
23087;DHT22;11712;51.134;4.156;2022-11-28T15:37:33;11.20;99.90
23087;DHT22;11712;51.134;4.156;2022-11-28T15:40:02;11.30;99.90
23087;DHT22;11712;51.134;4.156;2022-11-28T15:42:33;11.30;99.90
23087;DHT22;11712;51.134;4.156;2022-11-28T15:45:06;11.40;99.90
23087;DHT22;11712;51.134;4.156;2022-11-28T15:47:33;11.40;99.90
23087;DHT22;11712;51.134;4.156;2022-11-28T15:50:19;11.30;99.90
23087;DHT22;11712;51.134;4.156;2022-11-28T15:53:00;11.00;99.90
23087;DHT22;11712;51.134;4.156;2022-11-28T15:55:28;11.10;99.90
23087;DHT22;11712;51.134;4.156;2022-11-28T16:00:44;10.90;99.90
23087;DHT22;11712;51.134;4.156;2022-11-28T16:03:19;10.90;99.90
23087;DHT22;11712;51.134;4.156;2022-11-28T16:05:47;10.70;99.90
23087;DHT22;11712;51.134;4.156;2022-11-28T16:08:20;10.70;99.90
23087;DHT22;11712;51.134;4.156;2022-11-28T16:10:48;10.90;99.90
23087;DHT22;11712;51.134;4.156;2022-11-28T16:13:20;10.90;99.90
23087;DHT22;11712;51.134;4.156;2022-11-28T16:15:47;10.90;99.90
23087;DHT22;11712;51.134;4.156;2022-11-28T16:18:14;10.90;99.90
23087;DHT22;11712;51.134;4.156;2022-11-28T16:20:41;10.90;99.90
23087;DHT22;11712;51.134;4.156;2022-11-28T16:23:10;10.90;99.90
23087;DHT22;11712;51.134;4.156;2022-11-28T16:25:42;10.70;99.90
23087;DHT22;11712;51.134;4.156;2022-11-28T16:31:27;11.10;99.90
23087;DHT22;11712;51.134;4.156;2022-11-28T16:33:54;11.10;99.90
23087;DHT22;11712;51.134;4.156;2022-11-28T16:41:39;11.20;99.90
23087;DHT22;11712;51.134;4.156;2022-11-28T16:44:10;11.30;99.90
23087;DHT22;11712;51.134;4.156;2022-11-28T16:46:50;11.30;99.90
23087;DHT22;11712;51.134;4.156;2022-11-28T16:49:40;11.30;99.90
23087;DHT22;11712;51.134;4.156;2022-11-28T16:54:50;11.40;99.90
23087;DHT22;11712;51.134;4.156;2022-11-28T16:57:17;11.30;99.90
23087;DHT22;11712;51.134;4.156;2022-11-28T16:59:45;11.30;99.90
23087;DHT22;11712;51.134;4.156;2022-11-28T17:02:15;11.10;99.90
23087;DHT22;11712;51.134;4.156;2022-11-28T17:04:41;11.10;99.90
23087;DHT22;11712;51.134;4.156;2022-11-28T17:07:16;11.10;99.90
23087;DHT22;11712;51.134;4.156;2022-11-28T17:09:43;11.10;99.90
23087;DHT22;11712;51.134;4.156;2022-11-28T17:14:54;10.90;99.90
23087;DHT22;11712;51.134;4.156;2022-11-28T17:17:21;10.90;99.90
23087;DHT22;11712;51.134;4.156;2022-11-28T17:19:50;11.00;99.90
23087;DHT22;11712;51.134;4.156;2022-11-28T17:22:22;11.10;99.90
23087;DHT22;11712;51.134;4.156;2022-11-28T17:24:49;11.10;99.90
23087;DHT22;11712;51.134;4.156;2022-11-28T17:27:16;11.30;99.90
23087;DHT22;11712;51.134;4.156;2022-11-28T17:29:42;11.10;99.90
23087;DHT22;11712;51.134;4.156;2022-11-28T17:32:11;11.10;99.90
23087;DHT22;11712;51.134;4.156;2022-11-28T17:34:38;11.20;99.90
23087;DHT22;11712;51.134;4.156;2022-11-28T17:37:04;11.20;99.90
23087;DHT22;11712;51.134;4.156;2022-11-28T17:39:30;11.30;99.90
23087;DHT22;11712;51.134;4.156;2022-11-28T17:41:56;11.30;99.90
23087;DHT22;11712;51.134;4.156;2022-11-28T17:46:53;11.20;99.90
23087;DHT22;11712;51.134;4.156;2022-11-28T17:49:20;11.20;99.90
23087;DHT22;11712;51.134;4.156;2022-11-28T17:51:46;11.10;99.90
23087;DHT22;11712;51.134;4.156;2022-11-28T17:54:13;11.00;99.90
23087;DHT22;11712;51.134;4.156;2022-11-28T17:56:46;11.10;99.90
23087;DHT22;11712;51.134;4.156;2022-11-28T17:59:14;11.10;99.90
23087;DHT22;11712;51.134;4.156;2022-11-28T18:01:40;10.80;99.90
23087;DHT22;11712;51.134;4.156;2022-11-28T18:04:06;10.60;99.90
23087;DHT22;11712;51.134;4.156;2022-11-28T18:06:32;10.50;99.90
23087;DHT22;11712;51.134;4.156;2022-11-28T18:08:59;10.50;99.90
23087;DHT22;11712;51.134;4.156;2022-11-28T18:11:26;10.50;99.90
23087;DHT22;11712;51.134;4.156;2022-11-28T18:13:53;10.30;99.90
23087;DHT22;11712;51.134;4.156;2022-11-28T18:16:21;10.30;99.90
23087;DHT22;11712;51.134;4.156;2022-11-28T18:18:48;10.30;99.90
23087;DHT22;11712;51.134;4.156;2022-11-28T18:21:15;10.30;99.90
23087;DHT22;11712;51.134;4.156;2022-11-28T18:23:46;10.30;99.90
23087;DHT22;11712;51.134;4.156;2022-11-28T18:26:14;10.30;99.90
23087;DHT22;11712;51.134;4.156;2022-11-28T18:28:42;10.20;99.90
23087;DHT22;11712;51.134;4.156;2022-11-28T18:31:14;10.00;99.90
23087;DHT22;11712;51.134;4.156;2022-11-28T18:33:40;9.80;99.90
23087;DHT22;11712;51.134;4.156;2022-11-28T18:38:43;9.50;99.90
23087;DHT22;11712;51.134;4.156;2022-11-28T18:41:10;9.40;99.90
23087;DHT22;11712;51.134;4.156;2022-11-28T18:43:36;9.40;99.90
23087;DHT22;11712;51.134;4.156;2022-11-28T18:46:16;9.10;99.90
23087;DHT22;11712;51.134;4.156;2022-11-28T18:48:44;9.10;99.90
23087;DHT22;11712;51.134;4.156;2022-11-28T18:51:24;9.20;99.90
23087;DHT22;11712;51.134;4.156;2022-11-28T18:53:51;9.20;99.90
23087;DHT22;11712;51.134;4.156;2022-11-28T18:56:18;9.20;99.90
23087;DHT22;11712;51.134;4.156;2022-11-28T18:58:47;9.20;99.90
23087;DHT22;11712;51.134;4.156;2022-11-28T19:01:18;9.10;99.90
23087;DHT22;11712;51.134;4.156;2022-11-28T19:03:53;9.00;99.90
23087;DHT22;11712;51.134;4.156;2022-11-28T19:06:20;9.00;99.90
23087;DHT22;11712;51.134;4.156;2022-11-28T19:08:46;9.00;99.90
23087;DHT22;11712;51.134;4.156;2022-11-28T19:11:15;8.90;99.90
23087;DHT22;11712;51.134;4.156;2022-11-28T19:13:42;8.90;99.90
23087;DHT22;11712;51.134;4.156;2022-11-28T19:16:11;9.10;99.90
23087;DHT22;11712;51.134;4.156;2022-11-28T19:18:38;9.40;99.90
23087;DHT22;11712;51.134;4.156;2022-11-28T19:21:18;9.60;99.90
23087;DHT22;11712;51.134;4.156;2022-11-28T19:23:44;9.60;99.90
23087;DHT22;11712;51.134;4.156;2022-11-28T19:26:13;9.50;99.90
23087;DHT22;11712;51.134;4.156;2022-11-28T19:28:39;9.50;99.90
23087;DHT22;11712;51.134;4.156;2022-11-28T19:31:12;9.40;99.90
23087;DHT22;11712;51.134;4.156;2022-11-28T19:33:40;9.50;99.90